Time,TemperatureF,DewpointF,PressureIn,WindDirection,WindDirectionDegrees,WindSpeedMPH,WindSpeedGustMPH,Humidity,HourlyPrecipIn,Conditions,Clouds,dailyrainin,SoftwareType,DateUTC
2013-01-01 14:43:00,75.6,43.7,29.94,ESE,112,0.0,0.0,32,0.00,,---,0.00,VWS V14.01,2013-01-01 12:43:00,
2013-01-01 14:48:00,75.6,44.5,29.94,ESE,112,0.0,0.0,33,0.00,,---,0.00,VWS V14.01,2013-01-01 12:48:00,
2013-01-01 14:50:00,75.7,44.6,29.94,East,90,0.0,0.0,33,0.00,,---,0.00,VWS V14.01,2013-01-01 12:50:00,
2013-01-01 14:51:00,75.7,44.6,29.94,ENE,68,0.0,0.0,33,0.00,,---,0.00,VWS V14.01,2013-01-01 12:51:00,
2013-01-01 14:55:00,75.9,44.8,29.94,SSE,158,0.0,0.0,33,0.00,,---,0.00,VWS V14.01,2013-01-01 12:55:00,
2013-01-01 14:56:00,75.7,44.6,29.94,ESE,112,0.0,0.0,33,0.00,,---,0.00,VWS V14.01,2013-01-01 12:56:00,
2013-01-01 14:57:00,75.7,44.6,29.94,ESE,112,0.0,0.0,33,0.00,,---,0.00,VWS V14.01,2013-01-01 12:57:00,
2013-01-01 15:00:00,75.6,44.5,29.94,East,90,0.0,0.0,33,0.00,,---,0.00,VWS V14.01,2013-01-01 13:00:00,
2013-01-01 15:02:00,75.4,44.3,29.94,ESE,112,0.0,0.0,33,0.00,,---,0.00,VWS V14.01,2013-01-01 13:02:00,
2013-01-01 15:03:00,75.6,44.5,29.94,ESE,112,0.0,0.0,33,0.00,,---,0.00,VWS V14.01,2013-01-01 13:03:00,
2013-01-01 15:07:00,75.7,44.6,29.91,SE,135,0.0,0.0,33,0.00,,---,0.00,VWS V14.01,2013-01-01 13:07:00,
2013-01-01 15:08:00,75.7,44.6,29.91,ESE,112,0.0,0.0,33,0.00,,---,0.00,VWS V14.01,2013-01-01 13:08:00,
2013-01-01 15:11:00,75.6,44.5,29.91,ESE,112,0.0,0.0,33,0.00,,---,0.00,VWS V14.01,2013-01-01 13:11:00,
2013-01-01 15:12:00,75.6,44.5,29.91,SE,135,0.0,0.0,33,0.00,,---,0.00,VWS V14.01,2013-01-01 13:12:00,
2013-01-01 15:13:00,75.0,44.8,29.91,SE,135,0.0,0.0,34,0.00,,---,0.00,VWS V14.01,2013-01-01 13:13:00,
2013-01-01 15:17:00,75.4,44.3,29.91,ESE,112,0.0,0.0,33,0.00,,---,0.00,VWS V14.01,2013-01-01 13:17:00,
2013-01-01 15:18:00,75.4,44.3,29.91,ESE,112,0.0,0.0,33,0.00,,---,0.00,VWS V14.01,2013-01-01 13:18:00,
2013-01-01 15:22:00,75.2,44.9,29.94,ESE,112,0.0,0.0,34,0.00,,---,0.00,VWS V14.01,2013-01-01 13:22:00,
2013-01-01 15:24:00,75.0,44.8,29.94,SSE,158,0.0,0.0,34,0.00,,---,0.00,VWS V14.01,2013-01-01 13:24:00,
2013-01-01 15:27:00,75.2,44.9,29.94,ENE,68,0.0,0.0,34,0.00,,---,0.00,VWS V14.01,2013-01-01 13:27:00,
2013-01-01 15:31:00,75.2,44.9,29.94,ENE,68,0.0,0.0,34,0.00,,---,0.00,VWS V14.01,2013-01-01 13:31:00,
2013-01-01 15:35:00,73.9,44.6,29.94,SSE,158,0.0,0.0,35,0.00,,---,0.00,VWS V14.01,2013-01-01 13:35:00,
2013-01-01 15:37:00,74.1,45.5,29.94,ESE,112,0.0,0.0,36,0.00,,---,0.00,VWS V14.01,2013-01-01 13:37:00,
2013-01-01 15:38:00,74.1,45.5,29.94,ESE,112,0.0,0.0,36,0.00,,---,0.00,VWS V14.01,2013-01-01 13:38:00,
2013-01-01 15:42:00,74.3,45.7,29.94,SSE,158,0.0,0.0,36,0.00,,---,0.00,VWS V14.01,2013-01-01 13:42:00,
2013-01-01 15:43:00,74.1,45.5,29.94,ESE,112,0.0,0.0,36,0.00,,---,0.00,VWS V14.01,2013-01-01 13:43:00,
2013-01-01 15:44:00,74.3,46.4,29.94,ESE,112,0.0,0.0,37,0.00,,---,0.00,VWS V14.01,2013-01-01 13:44:00,
2013-01-01 15:46:00,74.3,45.7,29.94,NNE,22,0.0,0.0,36,0.00,,---,0.00,VWS V14.01,2013-01-01 13:46:00,
2013-01-01 15:48:00,74.1,45.5,29.94,ENE,68,0.0,0.0,36,0.00,,---,0.00,VWS V14.01,2013-01-01 13:48:00,
2013-01-01 15:49:00,74.3,45.7,29.94,SSE,158,0.0,0.0,36,0.00,,---,0.00,VWS V14.01,2013-01-01 13:49:00,
2013-01-01 15:51:00,74.5,45.8,29.91,SE,135,0.0,0.0,36,0.00,,---,0.00,VWS V14.01,2013-01-01 13:51:00,
2013-01-01 15:54:00,74.7,45.2,29.91,ESE,112,0.0,0.0,35,0.00,,---,0.00,VWS V14.01,2013-01-01 13:54:00,
2013-01-01 15:55:00,74.7,45.2,29.91,ESE,112,0.0,0.0,35,0.00,,---,0.00,VWS V14.01,2013-01-01 13:55:00,
2013-01-01 15:56:00,74.5,45.1,29.91,ESE,112,0.0,0.0,35,0.00,,---,0.00,VWS V14.01,2013-01-01 13:56:00,
2013-01-01 16:00:00,74.3,44.9,29.91,SE,135,0.0,0.0,35,0.00,,---,0.00,VWS V14.01,2013-01-01 14:00:00,
2013-01-01 16:01:00,74.7,45.2,29.91,ENE,68,0.0,0.0,35,0.00,,---,0.00,VWS V14.01,2013-01-01 14:01:00,
2013-01-01 16:02:00,74.7,45.2,29.91,ESE,112,0.0,0.0,35,0.00,,---,0.00,VWS V14.01,2013-01-01 14:02:00,
2013-01-01 16:07:00,74.3,44.1,29.91,East,90,0.0,0.0,34,0.00,,---,0.00,VWS V14.01,2013-01-01 14:07:00,
2013-01-01 16:08:00,73.9,44.6,29.91,ESE,112,0.0,0.0,35,0.00,,---,0.00,VWS V14.01,2013-01-01 14:08:00,
2013-01-01 16:11:00,73.9,45.3,29.91,NNW,338,0.0,0.0,36,0.00,,---,0.00,VWS V14.01,2013-01-01 14:11:00,
2013-01-01 16:12:00,73.8,45.2,29.91,ESE,112,0.0,0.0,36,0.00,,---,0.00,VWS V14.01,2013-01-01 14:12:00,
2013-01-01 16:15:00,73.4,47.6,29.91,SE,135,0.0,0.0,40,0.00,,---,0.00,VWS V14.01,2013-01-01 14:15:00,
2013-01-01 16:16:00,73.2,48.1,29.91,SSE,158,0.0,0.0,41,0.00,,---,0.00,VWS V14.01,2013-01-01 14:16:00,
2013-01-01 16:20:00,73.2,49.4,29.91,SE,135,0.0,0.0,43,0.00,,---,0.00,VWS V14.01,2013-01-01 14:20:00,
2013-01-01 16:21:00,72.9,48.5,29.91,SSE,158,0.0,0.0,42,0.00,,---,0.00,VWS V14.01,2013-01-01 14:21:00,
2013-01-01 16:22:00,72.9,48.5,29.91,SSE,158,0.0,0.0,42,0.00,,---,0.00,VWS V14.01,2013-01-01 14:22:00,
2013-01-01 16:27:00,70.9,47.9,29.91,NE,45,0.0,0.0,44,0.00,,---,0.00,VWS V14.01,2013-01-01 14:27:00,
2013-01-01 16:29:00,70.5,48.2,29.91,ESE,112,0.0,0.0,45,0.00,,---,0.00,VWS V14.01,2013-01-01 14:29:00,
2013-01-01 16:31:00,70.5,48.2,29.91,ESE,112,0.0,0.0,45,0.00,,---,0.00,VWS V14.01,2013-01-01 14:31:00,
2013-01-01 16:32:00,70.5,48.2,29.91,ENE,68,0.0,0.0,45,0.00,,---,0.00,VWS V14.01,2013-01-01 14:32:00,
2013-01-01 16:33:00,70.5,48.8,29.91,SE,135,0.0,0.0,46,0.00,,---,0.00,VWS V14.01,2013-01-01 14:33:00,
2013-01-01 16:36:00,71.2,49.4,29.91,East,90,0.0,0.0,46,0.00,,---,0.00,VWS V14.01,2013-01-01 14:36:00,
2013-01-01 16:38:00,72.0,48.9,29.91,ESE,112,0.0,0.0,44,0.00,,---,0.00,VWS V14.01,2013-01-01 14:38:00,
2013-01-01 16:39:00,72.3,49.8,29.91,ESE,112,0.0,0.0,45,0.00,,---,0.00,VWS V14.01,2013-01-01 14:39:00,
2013-01-01 16:42:00,72.5,48.1,29.91,ESE,112,0.0,0.0,42,0.00,,---,0.00,VWS V14.01,2013-01-01 14:42:00,
2013-01-01 16:43:00,72.1,48.4,29.91,East,90,0.0,0.0,43,0.00,,---,0.00,VWS V14.01,2013-01-01 14:43:00,
2013-01-01 16:45:00,71.1,49.3,29.91,ESE,112,0.0,0.0,46,0.00,,---,0.00,VWS V14.01,2013-01-01 14:45:00,
2013-01-01 16:46:00,70.9,49.1,29.91,SSE,158,0.0,0.0,46,0.00,,---,0.00,VWS V14.01,2013-01-01 14:46:00,
2013-01-01 16:48:00,70.3,49.2,29.91,ESE,112,0.0,0.0,47,0.00,,---,0.00,VWS V14.01,2013-01-01 14:48:00,
2013-01-01 16:51:00,69.6,49.6,29.91,ESE,112,0.0,0.0,49,0.00,,---,0.00,VWS V14.01,2013-01-01 14:51:00,
2013-01-01 16:53:00,69.1,50.7,29.91,ESE,112,0.0,0.0,52,0.00,,---,0.00,VWS V14.01,2013-01-01 14:53:00,
2013-01-01 16:54:00,68.9,50.6,29.91,ESE,112,0.0,0.0,52,0.00,,---,0.00,VWS V14.01,2013-01-01 14:54:00,
2013-01-01 16:56:00,68.5,50.8,29.91,ESE,112,0.0,0.0,53,0.00,,---,0.00,VWS V14.01,2013-01-01 14:56:00,
2013-01-01 16:57:00,68.4,50.6,29.91,ESE,112,0.0,0.0,53,0.00,,---,0.00,VWS V14.01,2013-01-01 14:57:00,
2013-01-01 17:01:00,67.8,52.5,29.91,ESE,112,0.0,0.0,58,0.00,,---,0.00,VWS V14.01,2013-01-01 15:01:00,
2013-01-01 17:02:00,67.8,53.0,29.91,ESE,112,0.0,0.0,59,0.00,,---,0.00,VWS V14.01,2013-01-01 15:02:00,
2013-01-01 17:04:00,67.6,53.7,29.91,SE,135,0.0,0.0,61,0.00,,---,0.00,VWS V14.01,2013-01-01 15:04:00,
2013-01-01 17:06:00,67.3,54.3,29.91,SE,135,0.0,0.0,63,0.00,,---,0.00,VWS V14.01,2013-01-01 15:06:00,
2013-01-01 17:07:00,67.1,54.5,29.91,ESE,112,0.0,0.0,64,0.00,,---,0.00,VWS V14.01,2013-01-01 15:07:00,
2013-01-01 17:12:00,66.2,55.3,29.91,East,90,0.0,0.0,68,0.00,,---,0.00,VWS V14.01,2013-01-01 15:12:00,
2013-01-01 17:14:00,66.0,55.6,29.91,SSE,158,0.0,0.0,69,0.00,,---,0.00,VWS V14.01,2013-01-01 15:14:00,
2013-01-01 17:15:00,65.7,55.6,29.91,SSE,158,0.0,0.0,70,0.00,,---,0.00,VWS V14.01,2013-01-01 15:15:00,
2013-01-01 17:19:00,64.8,54.8,29.91,ESE,112,0.0,0.0,70,0.00,,---,0.00,VWS V14.01,2013-01-01 15:19:00,
2013-01-01 17:20:00,64.6,54.2,29.91,ENE,68,0.0,0.0,69,0.00,,---,0.00,VWS V14.01,2013-01-01 15:20:00,
2013-01-01 17:22:00,64.4,54.4,29.91,ESE,112,0.0,0.0,70,0.00,,---,0.00,VWS V14.01,2013-01-01 15:22:00,
2013-01-01 17:23:00,64.4,54.4,29.91,SE,135,0.0,0.0,70,0.00,,---,0.00,VWS V14.01,2013-01-01 15:23:00,
2013-01-01 17:24:00,64.4,54.8,29.91,East,90,0.0,0.0,71,0.00,,---,0.00,VWS V14.01,2013-01-01 15:24:00,
2013-01-01 17:26:00,64.4,54.8,29.91,ESE,112,0.0,0.0,71,0.00,,---,0.00,VWS V14.01,2013-01-01 15:26:00,
2013-01-01 17:29:00,64.6,55.4,29.91,SSE,158,0.0,0.0,72,0.00,,---,0.00,VWS V14.01,2013-01-01 15:29:00,
2013-01-01 17:30:00,64.8,56.3,29.91,SE,135,0.0,0.0,74,0.00,,---,0.00,VWS V14.01,2013-01-01 15:30:00,
2013-01-01 17:31:00,64.8,56.3,29.91,ESE,112,0.0,0.0,74,0.00,,---,0.00,VWS V14.01,2013-01-01 15:31:00,
2013-01-01 17:33:00,64.9,57.2,29.91,ESE,112,0.0,0.0,76,0.00,,---,0.00,VWS V14.01,2013-01-01 15:33:00,
2013-01-01 17:35:00,65.1,58.1,29.91,ESE,112,0.0,0.0,78,0.00,,---,0.00,VWS V14.01,2013-01-01 15:35:00,
2013-01-01 17:36:00,65.1,58.5,29.91,ESE,112,0.0,0.0,79,0.00,,---,0.00,VWS V14.01,2013-01-01 15:36:00,
2013-01-01 17:38:00,65.3,58.3,29.91,ESE,112,0.0,0.0,78,0.00,,---,0.00,VWS V14.01,2013-01-01 15:38:00,
2013-01-01 17:43:00,65.5,57.7,29.91,ESE,112,0.0,0.0,76,0.00,,---,0.00,VWS V14.01,2013-01-01 15:43:00,
2013-01-01 17:44:00,65.5,57.7,29.91,ESE,112,0.0,0.0,76,0.00,,---,0.00,VWS V14.01,2013-01-01 15:44:00,
2013-01-01 17:47:00,65.7,56.8,29.91,ESE,112,0.0,0.0,73,0.00,,---,0.00,VWS V14.01,2013-01-01 15:47:00,
2013-01-01 17:50:00,65.8,56.6,29.91,ESE,112,0.0,0.0,72,0.00,,---,0.00,VWS V14.01,2013-01-01 15:50:00,
2013-01-01 17:52:00,65.8,56.6,29.91,NNE,22,0.0,0.0,72,0.00,,---,0.00,VWS V14.01,2013-01-01 15:52:00,
2013-01-01 17:55:00,66.2,56.5,29.91,SSE,158,0.0,0.0,71,0.00,,---,0.00,VWS V14.01,2013-01-01 15:55:00,
2013-01-01 17:57:00,66.2,56.5,29.91,SSE,158,0.0,0.0,71,0.00,,---,0.00,VWS V14.01,2013-01-01 15:57:00,
2013-01-01 17:59:00,66.2,56.5,29.91,ESE,112,0.0,0.0,71,0.00,,---,0.00,VWS V14.01,2013-01-01 15:59:00,
2013-01-01 18:00:00,66.2,56.9,29.91,ESE,112,0.0,0.0,72,0.00,,---,0.00,VWS V14.01,2013-01-01 16:00:00,
2013-01-01 18:02:00,66.4,57.1,29.91,East,90,0.0,0.0,72,0.00,,---,0.00,VWS V14.01,2013-01-01 16:02:00,
2013-01-01 18:04:00,66.4,55.9,29.91,ESE,112,0.0,0.0,69,0.00,,---,0.00,VWS V14.01,2013-01-01 16:04:00,
2013-01-01 18:06:00,66.4,55.5,29.91,East,90,0.0,0.0,68,0.00,,---,0.00,VWS V14.01,2013-01-01 16:06:00,
2013-01-01 18:07:00,66.6,55.3,29.91,ESE,112,0.0,0.0,67,0.00,,---,0.00,VWS V14.01,2013-01-01 16:07:00,
2013-01-01 18:09:00,66.6,54.9,29.91,ESE,112,0.0,0.0,66,0.00,,---,0.00,VWS V14.01,2013-01-01 16:09:00,
2013-01-01 18:12:00,66.6,54.0,29.91,ESE,112,0.0,0.0,64,0.00,,---,0.00,VWS V14.01,2013-01-01 16:12:00,
2013-01-01 18:13:00,66.7,54.2,29.91,ESE,112,0.0,0.0,64,0.00,,---,0.00,VWS V14.01,2013-01-01 16:13:00,
2013-01-01 18:14:00,66.7,54.2,29.91,ESE,112,0.0,0.0,64,0.00,,---,0.00,VWS V14.01,2013-01-01 16:14:00,
2013-01-01 18:18:00,66.7,53.3,29.91,ESE,112,0.0,0.0,62,0.00,,---,0.00,VWS V14.01,2013-01-01 16:18:00,
2013-01-01 18:21:00,66.9,52.6,29.91,ESE,112,0.0,0.0,60,0.00,,---,0.00,VWS V14.01,2013-01-01 16:21:00,
2013-01-01 18:23:00,66.9,52.6,29.91,ESE,112,0.0,0.0,60,0.00,,---,0.00,VWS V14.01,2013-01-01 16:23:00,
2013-01-01 18:24:00,66.9,52.1,29.91,ESE,112,0.0,0.0,59,0.00,,---,0.00,VWS V14.01,2013-01-01 16:24:00,
2013-01-01 18:26:00,66.9,51.7,29.91,ESE,112,0.0,0.0,58,0.00,,---,0.00,VWS V14.01,2013-01-01 16:26:00,
2013-01-01 18:30:00,66.9,52.6,29.91,ESE,112,0.0,0.0,60,0.00,,---,0.00,VWS V14.01,2013-01-01 16:30:00,
2013-01-01 18:31:00,66.9,52.6,29.91,ESE,112,0.0,0.0,60,0.00,,---,0.00,VWS V14.01,2013-01-01 16:31:00,
2013-01-01 18:35:00,67.1,51.8,29.91,ESE,112,0.0,0.0,58,0.00,,---,0.00,VWS V14.01,2013-01-01 16:35:00,
2013-01-01 18:37:00,67.3,53.8,29.91,ESE,112,0.0,0.0,62,0.00,,---,0.00,VWS V14.01,2013-01-01 16:37:00,
2013-01-01 18:42:00,67.1,54.5,29.91,ESE,112,0.0,0.0,64,0.00,,---,0.00,VWS V14.01,2013-01-01 16:42:00,
2013-01-01 18:44:00,66.9,54.8,29.91,ESE,112,0.0,0.0,65,0.00,,---,0.00,VWS V14.01,2013-01-01 16:44:00,
2013-01-01 18:45:00,66.6,54.4,29.91,ESE,112,0.0,0.0,65,0.00,,---,0.00,VWS V14.01,2013-01-01 16:45:00,
2013-01-01 18:50:00,66.2,54.1,29.91,ESE,112,0.0,0.0,65,0.00,,---,0.00,VWS V14.01,2013-01-01 16:50:00,
2013-01-01 18:51:00,66.2,53.2,29.91,ESE,112,0.0,0.0,63,0.00,,---,0.00,VWS V14.01,2013-01-01 16:51:00,
2013-01-01 18:55:00,66.4,51.2,29.91,ENE,68,0.0,0.0,58,0.00,,---,0.00,VWS V14.01,2013-01-01 16:55:00,
2013-01-01 18:57:00,66.4,51.2,29.91,ESE,112,0.0,0.0,58,0.00,,---,0.00,VWS V14.01,2013-01-01 16:57:00,
2013-01-01 18:58:00,66.6,51.8,29.91,East,90,0.0,0.0,59,0.00,,---,0.00,VWS V14.01,2013-01-01 16:58:00,
2013-01-01 19:03:00,66.4,53.0,29.91,ENE,68,0.0,0.0,62,0.00,,---,0.00,VWS V14.01,2013-01-01 17:03:00,
2013-01-01 19:04:00,66.2,53.2,29.91,ESE,112,0.0,0.0,63,0.00,,---,0.00,VWS V14.01,2013-01-01 17:04:00,
2013-01-01 19:07:00,66.0,53.1,29.91,ESE,112,0.0,0.0,63,0.00,,---,0.00,VWS V14.01,2013-01-01 17:07:00,
2013-01-01 19:08:00,66.0,53.1,29.91,ESE,112,0.0,0.0,63,0.00,,---,0.00,VWS V14.01,2013-01-01 17:08:00,
2013-01-01 19:11:00,66.0,52.6,29.91,ESE,112,0.0,0.0,62,0.00,,---,0.00,VWS V14.01,2013-01-01 17:11:00,
2013-01-01 19:13:00,65.8,51.6,29.91,ESE,112,0.0,0.0,60,0.00,,---,0.00,VWS V14.01,2013-01-01 17:13:00,
2013-01-01 19:15:00,65.8,51.6,29.91,East,90,0.0,0.0,60,0.00,,---,0.00,VWS V14.01,2013-01-01 17:15:00,
2013-01-01 19:17:00,65.8,52.0,29.91,NE,45,0.0,0.0,61,0.00,,---,0.00,VWS V14.01,2013-01-01 17:17:00,
2013-01-01 19:19:00,65.8,52.0,29.91,ESE,112,0.0,0.0,61,0.00,,---,0.00,VWS V14.01,2013-01-01 17:19:00,
2013-01-01 19:22:00,65.8,52.5,29.91,ESE,112,0.0,0.0,62,0.00,,---,0.00,VWS V14.01,2013-01-01 17:22:00,
2013-01-01 19:24:00,65.8,52.5,29.91,ESE,112,0.0,0.0,62,0.00,,---,0.00,VWS V14.01,2013-01-01 17:24:00,
2013-01-01 19:26:00,65.8,52.9,29.91,ENE,68,0.0,0.0,63,0.00,,---,0.00,VWS V14.01,2013-01-01 17:26:00,
2013-01-01 19:29:00,65.7,52.7,29.91,ESE,112,0.0,0.0,63,0.00,,---,0.00,VWS V14.01,2013-01-01 17:29:00,
2013-01-01 19:30:00,65.7,52.3,29.91,East,90,0.0,0.0,62,0.00,,---,0.00,VWS V14.01,2013-01-01 17:30:00,
2013-01-01 19:32:00,65.7,52.3,29.91,ESE,112,0.0,0.0,62,0.00,,---,0.00,VWS V14.01,2013-01-01 17:32:00,
2013-01-01 19:33:00,65.7,52.3,29.91,East,90,0.0,0.0,62,0.00,,---,0.00,VWS V14.01,2013-01-01 17:33:00,
2013-01-01 19:35:00,65.7,51.9,29.91,ESE,112,0.0,0.0,61,0.00,,---,0.00,VWS V14.01,2013-01-01 17:35:00,
2013-01-01 19:37:00,65.7,52.3,29.91,ESE,112,0.0,0.0,62,0.00,,---,0.00,VWS V14.01,2013-01-01 17:37:00,
2013-01-01 19:38:00,65.7,52.3,29.91,ESE,112,0.0,0.0,62,0.00,,---,0.00,VWS V14.01,2013-01-01 17:38:00,
2013-01-01 19:41:00,65.8,52.5,29.91,ESE,112,0.0,0.0,62,0.00,,---,0.00,VWS V14.01,2013-01-01 17:41:00,
2013-01-01 19:42:00,65.8,52.5,29.91,SE,135,0.0,0.0,62,0.00,,---,0.00,VWS V14.01,2013-01-01 17:42:00,
2013-01-01 19:44:00,65.8,52.5,29.91,ESE,112,0.0,0.0,62,0.00,,---,0.00,VWS V14.01,2013-01-01 17:44:00,
2013-01-01 19:45:00,65.8,52.9,29.91,ESE,112,0.0,0.0,63,0.00,,---,0.00,VWS V14.01,2013-01-01 17:45:00,
2013-01-01 19:49:00,65.7,53.2,29.91,ESE,112,0.0,0.0,64,0.00,,---,0.00,VWS V14.01,2013-01-01 17:49:00,
2013-01-01 19:51:00,65.7,52.7,29.91,ESE,112,0.0,0.0,63,0.00,,---,0.00,VWS V14.01,2013-01-01 17:51:00,
2013-01-01 19:53:00,65.7,52.7,29.91,ESE,112,0.0,0.0,63,0.00,,---,0.00,VWS V14.01,2013-01-01 17:53:00,
2013-01-01 19:54:00,65.7,53.2,29.91,ESE,112,0.0,0.0,64,0.00,,---,0.00,VWS V14.01,2013-01-01 17:54:00,
2013-01-01 19:56:00,65.7,53.6,29.91,East,90,0.0,0.0,65,0.00,,---,0.00,VWS V14.01,2013-01-01 17:56:00,
2013-01-01 19:59:00,65.5,53.4,29.91,ESE,112,0.0,0.0,65,0.00,,---,0.00,VWS V14.01,2013-01-01 17:59:00,
2013-01-01 20:01:00,65.5,53.4,29.91,ESE,112,0.0,0.0,65,0.00,,---,0.00,VWS V14.01,2013-01-01 18:01:00,
2013-01-01 20:06:00,65.3,52.8,29.91,ENE,68,0.0,0.0,64,0.00,,---,0.00,VWS V14.01,2013-01-01 18:06:00,
2013-01-01 20:07:00,65.3,52.8,29.91,ESE,112,0.0,0.0,64,0.00,,---,0.00,VWS V14.01,2013-01-01 18:07:00,
2013-01-01 20:08:00,65.3,53.2,29.91,East,90,0.0,0.0,65,0.00,,---,0.00,VWS V14.01,2013-01-01 18:08:00,
2013-01-01 20:12:00,65.3,52.8,29.91,East,90,0.0,0.0,64,0.00,,---,0.00,VWS V14.01,2013-01-01 18:12:00,
2013-01-01 20:17:00,65.3,52.4,29.91,ESE,112,0.0,0.0,63,0.00,,---,0.00,VWS V14.01,2013-01-01 18:17:00,
2013-01-01 20:19:00,65.5,52.6,29.91,ESE,112,0.0,0.0,63,0.00,,---,0.00,VWS V14.01,2013-01-01 18:19:00,
2013-01-01 20:22:00,65.3,52.4,29.91,ENE,68,0.0,0.0,63,0.00,,---,0.00,VWS V14.01,2013-01-01 18:22:00,
2013-01-01 20:25:00,65.3,52.4,29.91,East,90,0.0,0.0,63,0.00,,---,0.00,VWS V14.01,2013-01-01 18:25:00,
2013-01-01 20:27:00,65.5,53.0,29.91,ENE,68,0.0,0.0,64,0.00,,---,0.00,VWS V14.01,2013-01-01 18:27:00,
2013-01-01 20:30:00,65.5,54.7,29.91,ENE,68,0.0,0.0,68,0.00,,---,0.00,VWS V14.01,2013-01-01 18:30:00,
2013-01-01 20:35:00,65.1,54.3,29.91,ESE,112,0.0,0.0,68,0.00,,---,0.00,VWS V14.01,2013-01-01 18:35:00,
2013-01-01 20:36:00,65.1,54.3,29.91,East,90,0.0,0.0,68,0.00,,---,0.00,VWS V14.01,2013-01-01 18:36:00,
2013-01-01 20:38:00,65.1,54.3,29.91,East,90,0.0,0.0,68,0.00,,---,0.00,VWS V14.01,2013-01-01 18:38:00,
2013-01-01 20:39:00,65.1,54.7,29.91,East,90,0.0,0.0,69,0.00,,---,0.00,VWS V14.01,2013-01-01 18:39:00,
2013-01-01 20:41:00,65.1,55.1,29.91,East,90,0.0,0.0,70,0.00,,---,0.00,VWS V14.01,2013-01-01 18:41:00,
2013-01-01 20:42:00,65.1,55.1,29.91,ESE,112,0.0,0.0,70,0.00,,---,0.00,VWS V14.01,2013-01-01 18:42:00,
2013-01-01 20:44:00,65.1,55.5,29.91,ENE,68,0.0,0.0,71,0.00,,---,0.00,VWS V14.01,2013-01-01 18:44:00,
2013-01-01 20:46:00,65.1,55.5,29.91,ESE,112,0.0,0.0,71,0.00,,---,0.00,VWS V14.01,2013-01-01 18:46:00,
2013-01-01 20:49:00,65.1,55.9,29.91,East,90,0.0,0.0,72,0.00,,---,0.00,VWS V14.01,2013-01-01 18:49:00,
2013-01-01 20:50:00,65.1,55.9,29.91,ESE,112,0.0,0.0,72,0.00,,---,0.00,VWS V14.01,2013-01-01 18:50:00,
2013-01-01 20:51:00,65.1,55.9,29.91,SSE,158,0.0,0.0,72,0.00,,---,0.00,VWS V14.01,2013-01-01 18:51:00,
2013-01-01 20:55:00,64.9,54.1,29.91,ESE,112,0.0,0.0,68,0.00,,---,0.00,VWS V14.01,2013-01-01 18:55:00,
2013-01-01 20:57:00,64.9,53.7,29.91,ESE,112,0.0,0.0,67,0.00,,---,0.00,VWS V14.01,2013-01-01 18:57:00,
2013-01-01 21:02:00,65.1,53.5,29.91,ESE,112,0.0,0.0,66,0.00,,---,0.00,VWS V14.01,2013-01-01 19:02:00,
2013-01-01 21:04:00,65.1,53.9,29.91,ESE,112,0.0,0.0,67,0.00,,---,0.00,VWS V14.01,2013-01-01 19:04:00,
2013-01-01 21:05:00,65.1,54.3,29.91,ESE,112,0.0,0.0,68,0.00,,---,0.00,VWS V14.01,2013-01-01 19:05:00,
2013-01-01 21:07:00,65.1,54.3,29.91,ENE,68,0.0,0.0,68,0.00,,---,0.00,VWS V14.01,2013-01-01 19:07:00,
2013-01-01 21:09:00,65.1,54.3,29.91,ESE,112,0.0,0.0,68,0.00,,---,0.00,VWS V14.01,2013-01-01 19:09:00,
2013-01-01 21:11:00,65.1,54.3,29.91,East,90,0.0,0.0,68,0.00,,---,0.00,VWS V14.01,2013-01-01 19:11:00,
2013-01-01 21:14:00,65.1,54.3,29.91,ESE,112,0.0,0.0,68,0.00,,---,0.00,VWS V14.01,2013-01-01 19:14:00,
2013-01-01 21:16:00,65.1,54.7,29.91,ENE,68,0.0,0.0,69,0.00,,---,0.00,VWS V14.01,2013-01-01 19:16:00,
2013-01-01 21:17:00,65.1,55.1,29.91,ENE,68,0.0,0.0,70,0.00,,---,0.00,VWS V14.01,2013-01-01 19:17:00,
2013-01-01 21:20:00,64.9,54.9,29.91,East,90,0.0,0.0,70,0.00,,---,0.00,VWS V14.01,2013-01-01 19:20:00,
2013-01-01 21:22:00,64.9,55.3,29.91,ENE,68,0.0,0.0,71,0.00,,---,0.00,VWS V14.01,2013-01-01 19:22:00,
2013-01-01 21:23:00,64.9,55.3,29.91,ENE,68,0.0,0.0,71,0.00,,---,0.00,VWS V14.01,2013-01-01 19:23:00,
2013-01-01 21:26:00,64.6,55.0,29.91,ENE,68,0.0,0.0,71,0.00,,---,0.00,VWS V14.01,2013-01-01 19:26:00,
2013-01-01 21:27:00,64.6,55.0,29.91,ENE,68,0.0,0.0,71,0.00,,---,0.00,VWS V14.01,2013-01-01 19:27:00,
2013-01-01 21:29:00,64.4,54.4,29.91,East,90,0.0,0.0,70,0.00,,---,0.00,VWS V14.01,2013-01-01 19:29:00,
2013-01-01 21:34:00,64.4,55.2,29.91,ENE,68,0.0,0.0,72,0.00,,---,0.00,VWS V14.01,2013-01-01 19:34:00,
2013-01-01 21:35:00,64.4,55.2,29.91,ENE,68,0.0,0.0,72,0.00,,---,0.00,VWS V14.01,2013-01-01 19:35:00,
2013-01-01 21:39:00,64.4,55.6,29.91,ENE,68,0.0,0.0,73,0.00,,---,0.00,VWS V14.01,2013-01-01 19:39:00,
2013-01-01 21:40:00,64.2,55.4,29.91,ENE,68,0.0,0.0,73,0.00,,---,0.00,VWS V14.01,2013-01-01 19:40:00,
2013-01-01 21:41:00,64.2,55.4,29.91,ESE,112,0.0,0.0,73,0.00,,---,0.00,VWS V14.01,2013-01-01 19:41:00,
2013-01-01 21:46:00,64.2,55.4,29.91,ENE,68,0.0,0.0,73,0.00,,---,0.00,VWS V14.01,2013-01-01 19:46:00,
2013-01-01 21:47:00,64.4,55.6,29.91,NNE,22,0.0,0.0,73,0.00,,---,0.00,VWS V14.01,2013-01-01 19:47:00,
2013-01-01 21:48:00,64.4,55.6,29.91,ENE,68,0.0,0.0,73,0.00,,---,0.00,VWS V14.01,2013-01-01 19:48:00,
2013-01-01 21:51:00,64.2,55.8,29.91,ESE,112,0.0,0.0,74,0.00,,---,0.00,VWS V14.01,2013-01-01 19:51:00,
2013-01-01 21:54:00,64.2,55.4,29.91,ENE,68,0.0,0.0,73,0.00,,---,0.00,VWS V14.01,2013-01-01 19:54:00,
2013-01-01 21:57:00,64.2,55.0,29.91,East,90,0.0,0.0,72,0.00,,---,0.00,VWS V14.01,2013-01-01 19:57:00,
2013-01-01 22:01:00,64.2,54.6,29.91,ENE,68,0.0,0.0,71,0.00,,---,0.00,VWS V14.01,2013-01-01 20:01:00,
2013-01-01 22:03:00,64.4,54.8,29.91,ESE,112,0.0,0.0,71,0.00,,---,0.00,VWS V14.01,2013-01-01 20:03:00,
2013-01-01 22:04:00,64.4,54.8,29.91,East,90,0.0,0.0,71,0.00,,---,0.00,VWS V14.01,2013-01-01 20:04:00,
2013-01-01 22:07:00,64.4,54.8,29.91,East,90,0.0,0.0,71,0.00,,---,0.00,VWS V14.01,2013-01-01 20:07:00,
2013-01-01 22:08:00,64.4,54.8,29.91,East,90,0.0,0.0,71,0.00,,---,0.00,VWS V14.01,2013-01-01 20:08:00,
2013-01-01 22:13:00,64.2,54.6,29.91,ESE,112,0.0,0.0,71,0.00,,---,0.00,VWS V14.01,2013-01-01 20:13:00,
2013-01-01 22:15:00,64.2,55.0,29.91,East,90,0.0,0.0,72,0.00,,---,0.00,VWS V14.01,2013-01-01 20:15:00,
2013-01-01 22:17:00,64.2,55.0,29.91,East,90,0.0,0.0,72,0.00,,---,0.00,VWS V14.01,2013-01-01 20:17:00,
2013-01-01 22:18:00,64.4,54.8,29.91,East,90,0.0,0.0,71,0.00,,---,0.00,VWS V14.01,2013-01-01 20:18:00,
2013-01-01 22:20:00,64.4,55.2,29.91,ESE,112,0.0,0.0,72,0.00,,---,0.00,VWS V14.01,2013-01-01 20:20:00,
2013-01-01 22:23:00,64.4,55.2,29.91,ENE,68,0.0,0.0,72,0.00,,---,0.00,VWS V14.01,2013-01-01 20:23:00,
2013-01-01 22:24:00,64.4,54.8,29.91,ESE,112,0.0,0.0,71,0.00,,---,0.00,VWS V14.01,2013-01-01 20:24:00,
2013-01-01 22:27:00,64.4,55.2,29.91,East,90,0.0,0.0,72,0.00,,---,0.00,VWS V14.01,2013-01-01 20:27:00,
2013-01-01 22:30:00,64.4,55.6,29.91,ESE,112,0.0,0.0,73,0.00,,---,0.00,VWS V14.01,2013-01-01 20:30:00,
2013-01-01 22:31:00,64.4,55.6,29.91,East,90,0.0,0.0,73,0.00,,---,0.00,VWS V14.01,2013-01-01 20:31:00,
2013-01-01 22:33:00,64.4,55.6,29.91,ESE,112,0.0,0.0,73,0.00,,---,0.00,VWS V14.01,2013-01-01 20:33:00,
2013-01-01 22:34:00,64.4,55.6,29.91,ESE,112,0.0,0.0,73,0.00,,---,0.00,VWS V14.01,2013-01-01 20:34:00,
2013-01-01 22:36:00,64.4,55.2,29.91,ENE,68,0.0,0.0,72,0.00,,---,0.00,VWS V14.01,2013-01-01 20:36:00,
2013-01-01 22:38:00,64.4,55.6,29.91,East,90,0.0,0.0,73,0.00,,---,0.00,VWS V14.01,2013-01-01 20:38:00,
2013-01-01 22:41:00,64.2,55.4,29.91,East,90,0.0,0.0,73,0.00,,---,0.00,VWS V14.01,2013-01-01 20:41:00,
2013-01-01 22:42:00,64.2,55.4,29.91,ESE,112,0.0,0.0,73,0.00,,---,0.00,VWS V14.01,2013-01-01 20:42:00,
2013-01-01 22:43:00,64.2,55.8,29.91,ESE,112,0.0,0.0,74,0.00,,---,0.00,VWS V14.01,2013-01-01 20:43:00,
2013-01-01 22:44:00,64.2,55.4,29.91,ESE,112,0.0,0.0,73,0.00,,---,0.00,VWS V14.01,2013-01-01 20:44:00,
2013-01-01 22:47:00,64.2,55.4,29.91,East,90,0.0,0.0,73,0.00,,---,0.00,VWS V14.01,2013-01-01 20:47:00,
2013-01-01 22:50:00,64.0,55.2,29.91,ENE,68,0.0,0.0,73,0.00,,---,0.00,VWS V14.01,2013-01-01 20:50:00,
2013-01-01 22:51:00,64.0,55.2,29.91,East,90,0.0,0.0,73,0.00,,---,0.00,VWS V14.01,2013-01-01 20:51:00,
2013-01-01 22:52:00,64.0,55.2,29.91,East,90,0.0,0.0,73,0.00,,---,0.00,VWS V14.01,2013-01-01 20:52:00,
2013-01-01 22:56:00,63.9,55.4,29.91,ENE,68,0.0,0.0,74,0.00,,---,0.00,VWS V14.01,2013-01-01 20:56:00,
2013-01-01 22:57:00,63.9,55.0,29.91,ESE,112,0.0,0.0,73,0.00,,---,0.00,VWS V14.01,2013-01-01 20:57:00,
2013-01-01 22:58:00,63.9,55.0,29.91,ENE,68,0.0,0.0,73,0.00,,---,0.00,VWS V14.01,2013-01-01 20:58:00,
2013-01-01 23:03:00,63.9,55.0,29.91,East,90,0.0,0.0,73,0.00,,---,0.00,VWS V14.01,2013-01-01 21:03:00,
2013-01-01 23:04:00,63.9,55.0,29.91,East,90,0.0,0.0,73,0.00,,---,0.00,VWS V14.01,2013-01-01 21:04:00,
2013-01-01 23:06:00,64.0,55.2,29.91,ESE,112,0.0,0.0,73,0.00,,---,0.00,VWS V14.01,2013-01-01 21:06:00,
2013-01-01 23:08:00,64.0,54.8,29.91,ENE,68,0.0,0.0,72,0.00,,---,0.00,VWS V14.01,2013-01-01 21:08:00,
2013-01-01 23:11:00,64.0,54.8,29.91,ESE,112,0.0,0.0,72,0.00,,---,0.00,VWS V14.01,2013-01-01 21:11:00,
2013-01-01 23:12:00,64.0,54.8,29.91,ESE,112,0.0,0.0,72,0.00,,---,0.00,VWS V14.01,2013-01-01 21:12:00,
2013-01-01 23:13:00,64.2,55.0,29.91,ESE,112,0.0,0.0,72,0.00,,---,0.00,VWS V14.01,2013-01-01 21:13:00,
2013-01-01 23:17:00,64.2,55.0,29.91,ESE,112,0.0,0.0,72,0.00,,---,0.00,VWS V14.01,2013-01-01 21:17:00,
2013-01-01 23:18:00,64.2,55.0,29.91,ESE,112,0.0,0.0,72,0.00,,---,0.00,VWS V14.01,2013-01-01 21:18:00,
2013-01-01 23:19:00,64.2,55.0,29.91,East,90,0.0,0.0,72,0.00,,---,0.00,VWS V14.01,2013-01-01 21:19:00,
2013-01-01 23:24:00,64.2,54.6,29.91,ESE,112,0.0,0.0,71,0.00,,---,0.00,VWS V14.01,2013-01-01 21:24:00,
2013-01-01 23:25:00,64.2,54.6,29.91,East,90,0.0,0.0,71,0.00,,---,0.00,VWS V14.01,2013-01-01 21:25:00,
2013-01-01 23:26:00,64.2,54.6,29.91,ENE,68,0.0,0.0,71,0.00,,---,0.00,VWS V14.01,2013-01-01 21:26:00,
2013-01-01 23:29:00,64.2,54.2,29.91,East,90,0.0,0.0,70,0.00,,---,0.00,VWS V14.01,2013-01-01 21:29:00,
2013-01-01 23:32:00,64.2,54.2,29.91,East,90,0.0,0.0,70,0.00,,---,0.00,VWS V14.01,2013-01-01 21:32:00,
2013-01-01 23:34:00,64.2,54.2,29.91,ESE,112,0.0,0.0,70,0.00,,---,0.00,VWS V14.01,2013-01-01 21:34:00,
2013-01-01 23:39:00,64.0,54.5,29.91,ESE,112,0.0,0.0,71,0.00,,---,0.00,VWS V14.01,2013-01-01 21:39:00,
2013-01-01 23:40:00,64.0,54.5,29.91,East,90,0.0,0.0,71,0.00,,---,0.00,VWS V14.01,2013-01-01 21:40:00,
2013-01-01 23:45:00,64.0,54.5,29.91,ENE,68,0.0,0.0,71,0.00,,---,0.00,VWS V14.01,2013-01-01 21:45:00,
2013-01-01 23:46:00,64.0,54.5,29.91,East,90,0.0,0.0,71,0.00,,---,0.00,VWS V14.01,2013-01-01 21:46:00,
2013-01-01 23:48:00,64.0,54.1,29.91,ESE,112,0.0,0.0,70,0.00,,---,0.00,VWS V14.01,2013-01-01 21:48:00,
2013-01-01 23:53:00,63.9,54.3,29.88,East,90,0.0,0.0,71,0.00,,---,0.00,VWS V14.01,2013-01-01 21:53:00,
2013-01-01 23:56:00,63.9,54.3,29.88,ESE,112,0.0,0.0,71,0.00,,---,0.00,VWS V14.01,2013-01-01 21:56:00,